createdAt,value
2017-06-11T00:04:13.415Z,1012.49
2017-06-11T00:09:10.511Z,1012.50
2017-06-11T00:14:07.112Z,1012.48
2017-06-11T00:19:03.823Z,1012.45
2017-06-11T00:23:59.349Z,1012.40
2017-06-11T00:28:56.498Z,1012.40
2017-06-11T00:33:52.217Z,1012.35
2017-06-11T00:38:47.958Z,1012.34
2017-06-11T00:43:44.882Z,1012.36
2017-06-11T00:48:40.461Z,1012.25
2017-06-11T00:53:36.336Z,1012.31
2017-06-11T00:58:33.125Z,1012.26
2017-06-11T01:03:29.045Z,1012.31
2017-06-11T01:08:24.894Z,1012.37
2017-06-11T01:13:20.677Z,1012.37
2017-06-11T01:18:16.611Z,1012.29
2017-06-11T01:23:12.587Z,1012.28
2017-06-11T01:28:08.303Z,1012.32
2017-06-11T01:33:04.201Z,1012.22
2017-06-11T01:38:01.096Z,1012.24
2017-06-11T01:42:56.874Z,1012.24
2017-06-11T01:47:52.736Z,1012.15
2017-06-11T01:52:48.822Z,1012.15
2017-06-11T01:57:44.630Z,1012.17
2017-06-11T02:02:42.024Z,1012.16
2017-06-11T02:07:38.035Z,1012.12
2017-06-11T02:12:33.902Z,1012.06
2017-06-11T02:17:30.053Z,1012.11
2017-06-11T02:22:26.378Z,1012.07
2017-06-11T02:27:23.103Z,1011.99
2017-06-11T02:32:18.427Z,1012.09
2017-06-11T02:37:14.021Z,1012.07
2017-06-11T02:42:10.009Z,1012.08
2017-06-11T02:47:05.749Z,1012.09
2017-06-11T02:52:01.423Z,1012.07
2017-06-11T02:56:57.337Z,1012.00
2017-06-11T03:01:54.232Z,1011.99
2017-06-11T03:06:50.362Z,1011.99
2017-06-11T03:11:46.208Z,1012.00
2017-06-11T03:16:41.796Z,1011.97
2017-06-11T03:21:38.797Z,1011.97
2017-06-11T03:26:34.330Z,1011.92
2017-06-11T03:31:31.562Z,1011.84
2017-06-11T03:36:27.011Z,1011.81
2017-06-11T03:41:24.342Z,1011.81
2017-06-11T03:46:21.165Z,1011.77
2017-06-11T03:51:16.871Z,1011.75
2017-06-11T03:56:12.927Z,1011.82
2017-06-11T04:01:08.890Z,1011.90
2017-06-11T04:06:05.528Z,1011.92
2017-06-11T04:11:01.498Z,1011.99
2017-06-11T04:15:57.862Z,1011.94
2017-06-11T04:20:53.857Z,1011.91
2017-06-11T04:25:50.315Z,1011.86
2017-06-11T04:30:46.554Z,1011.91
2017-06-11T04:35:43.345Z,1011.98
2017-06-11T04:40:41.139Z,1011.95
2017-06-11T04:45:37.345Z,1012.00
2017-06-11T04:50:34.653Z,1011.89
2017-06-11T04:55:30.162Z,1011.82
2017-06-11T05:00:27.131Z,1011.80
2017-06-11T05:05:22.738Z,1011.77
2017-06-11T05:10:19.985Z,1011.77
2017-06-11T05:15:17.748Z,1011.75
2017-06-11T05:20:15.137Z,1011.70
2017-06-11T05:25:10.562Z,1011.72
2017-06-11T05:30:06.574Z,1011.69
2017-06-11T05:35:02.596Z,1011.68
2017-06-11T05:39:59.804Z,1011.66
2017-06-11T05:44:56.461Z,1011.63
2017-06-11T05:49:53.131Z,1011.62
2017-06-11T05:54:49.179Z,1011.75
2017-06-11T05:59:44.742Z,1011.80
2017-06-11T06:04:40.852Z,1011.85
2017-06-11T06:09:36.959Z,1011.78
2017-06-11T06:14:32.746Z,1011.85
2017-06-11T06:19:28.582Z,1011.82
2017-06-11T06:24:25.522Z,1011.86
2017-06-11T06:29:22.144Z,1011.77
2017-06-11T06:34:18.085Z,1011.80
2017-06-11T06:39:14.883Z,1011.74
2017-06-11T06:44:10.792Z,1011.70
2017-06-11T06:49:08.018Z,1011.56
2017-06-11T06:54:04.183Z,1011.68
2017-06-11T06:59:02.366Z,1011.64
2017-06-11T07:03:57.822Z,1011.61
2017-06-11T07:08:54.343Z,1011.63
2017-06-11T07:13:50.846Z,1011.62
2017-06-11T07:18:47.061Z,1011.57
2017-06-11T07:23:43.384Z,1011.72
2017-06-11T07:28:39.792Z,1011.55
2017-06-11T07:33:36.322Z,1011.62
2017-06-11T07:38:32.613Z,1011.59
2017-06-11T07:43:30.219Z,1011.48
2017-06-11T07:48:26.459Z,1011.55
2017-06-11T07:53:24.977Z,1011.49
2017-06-11T07:58:20.722Z,1011.48
2017-06-11T08:03:17.628Z,1011.47
2017-06-11T08:08:14.918Z,1011.25
2017-06-11T08:13:12.205Z,1011.27
2017-06-11T08:18:10.313Z,1011.27
2017-06-11T08:23:08.205Z,1011.12
2017-06-11T08:28:05.258Z,1011.26
2017-06-11T08:33:02.269Z,1011.14
2017-06-11T08:37:59.221Z,1011.08
2017-06-11T08:42:56.453Z,1011.10
2017-06-11T08:47:52.734Z,1011.03
2017-06-11T08:52:48.805Z,1011.04
2017-06-11T08:57:45.265Z,1011.06
2017-06-11T09:02:41.057Z,1011.09
2017-06-11T09:07:37.563Z,1011.09
2017-06-11T09:12:33.785Z,1010.84
2017-06-11T09:17:29.008Z,1010.94
2017-06-11T09:22:23.942Z,1010.91
2017-06-11T09:27:20.232Z,1010.87
2017-06-11T09:32:15.336Z,1010.89
2017-06-11T09:37:10.901Z,1010.71
2017-06-11T09:42:06.917Z,1010.62
2017-06-11T09:47:03.040Z,1010.62
2017-06-11T09:51:59.119Z,1010.39
2017-06-11T09:56:55.053Z,1010.50
2017-06-11T10:01:51.022Z,1010.44
2017-06-11T10:06:47.667Z,1010.39
2017-06-11T10:11:44.311Z,1010.39
2017-06-11T10:16:40.449Z,1010.34
2017-06-11T10:21:36.212Z,1010.25
2017-06-11T10:26:31.406Z,1010.28
2017-06-11T10:31:27.384Z,1010.25
2017-06-11T10:36:23.320Z,1010.22
2017-06-11T10:41:20.251Z,1010.28
2017-06-11T10:46:17.044Z,1010.20
2017-06-11T10:51:14.520Z,1010.13
2017-06-11T10:56:11.664Z,1009.94
2017-06-11T11:01:07.444Z,1009.76
2017-06-11T11:06:02.723Z,1009.63
2017-06-11T11:10:59.926Z,1009.57
2017-06-11T11:15:58.421Z,1009.53
2017-06-11T11:20:54.484Z,1009.40
2017-06-11T11:25:51.549Z,1009.35
2017-06-11T11:30:45.861Z,1009.22
2017-06-11T11:35:42.964Z,1009.18
2017-06-11T11:40:38.693Z,1009.18
2017-06-11T11:45:34.250Z,1009.06
2017-06-11T11:50:30.248Z,1009.02
2017-06-11T11:55:26.701Z,1008.99
2017-06-11T12:00:22.669Z,1008.87
2017-06-11T12:05:18.934Z,1008.77
2017-06-11T12:15:23.991Z,1008.79
2017-06-11T12:20:19.051Z,1008.65
2017-06-11T12:25:15.031Z,1008.52
2017-06-11T12:30:13.698Z,1008.43
2017-06-11T12:35:10.446Z,1008.47
2017-06-11T12:40:08.446Z,1008.27
2017-06-11T12:45:06.017Z,1008.11
2017-06-11T12:50:02.458Z,1008.18
2017-06-11T12:54:58.255Z,1008.19
2017-06-11T12:59:53.839Z,1008.13
2017-06-11T13:04:51.448Z,1008.00
2017-06-11T13:09:47.613Z,1007.93
2017-06-11T13:14:44.295Z,1007.80
2017-06-11T13:19:41.936Z,1007.73
2017-06-11T13:24:38.322Z,1007.75
2017-06-11T13:29:34.391Z,1007.73
2017-06-11T13:34:31.312Z,1007.56
2017-06-11T13:39:27.983Z,1007.43
2017-06-11T13:44:23.602Z,1007.43
2017-06-11T13:49:20.107Z,1007.26
2017-06-11T13:54:16.975Z,1007.24
2017-06-11T13:59:12.955Z,1007.13
2017-06-11T14:04:09.054Z,1007.08
2017-06-11T14:09:04.737Z,1007.10
2017-06-11T14:14:01.454Z,1007.06
2017-06-11T14:18:56.938Z,1006.93
2017-06-11T14:23:52.659Z,1006.98
2017-06-11T14:28:48.609Z,1006.84
2017-06-11T14:33:44.550Z,1006.78
2017-06-11T14:38:41.567Z,1006.85
2017-06-11T14:43:38.301Z,1006.96
2017-06-11T14:48:35.146Z,1006.92
2017-06-11T14:53:31.095Z,1006.94
2017-06-11T14:58:27.035Z,1006.84
2017-06-11T15:08:28.423Z,1006.88
2017-06-11T15:13:24.289Z,1006.73
2017-06-11T15:18:19.957Z,1006.75
2017-06-11T15:23:16.723Z,1006.53
2017-06-11T15:28:13.598Z,1006.57
2017-06-11T15:33:10.310Z,1006.51
2017-06-11T15:38:07.979Z,1006.45
2017-06-11T15:43:04.893Z,1006.44
2017-06-11T15:48:00.729Z,1006.20
2017-06-11T15:52:57.623Z,1006.09
2017-06-11T15:57:54.526Z,1006.13
2017-06-11T16:02:50.232Z,1006.07
2017-06-11T16:07:46.368Z,1006.10
2017-06-11T16:12:43.257Z,1006.02
2017-06-11T16:17:38.991Z,1005.95
2017-06-11T16:22:34.750Z,1005.99
2017-06-11T16:27:30.945Z,1006.04
2017-06-11T16:32:27.194Z,1005.99
2017-06-11T16:37:23.257Z,1006.05
2017-06-11T16:42:19.746Z,1005.97
2017-06-11T16:47:15.857Z,1005.98
2017-06-11T16:52:13.922Z,1005.93
2017-06-11T16:57:09.600Z,1005.95
2017-06-11T17:02:05.680Z,1006.06
2017-06-11T17:07:02.397Z,1006.01
2017-06-11T17:11:58.885Z,1006.00
2017-06-11T17:16:55.326Z,1006.04
2017-06-11T17:21:51.174Z,1006.11
2017-06-11T17:26:48.547Z,1005.93
2017-06-11T17:31:44.522Z,1006.05
2017-06-11T17:36:42.296Z,1005.96
2017-06-11T17:41:37.752Z,1005.95
2017-06-11T17:46:34.098Z,1005.87
2017-06-11T17:51:30.863Z,1005.64
2017-06-11T17:56:28.753Z,1005.54
2017-06-11T18:01:25.281Z,1005.36
2017-06-11T18:06:20.452Z,1005.36
2017-06-11T18:11:16.292Z,1005.32
2017-06-11T18:16:12.131Z,1005.21
2017-06-11T18:21:08.913Z,1005.07
2017-06-11T18:26:04.631Z,1005.11
2017-06-11T18:31:01.563Z,1004.99
2017-06-11T18:35:57.358Z,1004.87
2017-06-11T18:45:56.538Z,1004.37
2017-06-11T18:50:52.398Z,1004.61
2017-06-11T18:55:48.380Z,1004.81
2017-06-11T19:00:45.449Z,1004.92
2017-06-11T19:05:40.979Z,1004.94
2017-06-11T19:10:37.920Z,1004.88
2017-06-11T19:15:33.376Z,1004.86
2017-06-11T19:20:29.238Z,1004.86
2017-06-11T19:25:24.991Z,1004.79
2017-06-11T19:30:20.983Z,1004.79
2017-06-11T19:35:17.789Z,1004.80
2017-06-11T19:40:13.393Z,1004.71
2017-06-11T19:45:09.301Z,1004.82
2017-06-11T19:50:06.273Z,1004.72
2017-06-11T19:55:03.045Z,1004.79
2017-06-11T19:59:59.742Z,1004.93
2017-06-11T20:04:55.341Z,1005.07
2017-06-11T20:09:52.272Z,1005.09
2017-06-11T20:14:49.063Z,1005.03
2017-06-11T20:19:44.953Z,1005.00
2017-06-11T20:24:41.004Z,1004.92
2017-06-11T20:29:36.894Z,1005.00
2017-06-11T20:34:34.419Z,1005.03
2017-06-11T20:39:31.248Z,1005.18
2017-06-11T20:44:27.645Z,1005.21
2017-06-11T20:49:25.606Z,1005.18
2017-06-11T20:54:22.593Z,1005.27
2017-06-11T20:59:18.058Z,1005.29
2017-06-11T21:04:14.890Z,1005.29
2017-06-11T21:09:11.412Z,1005.33
2017-06-11T21:14:08.959Z,1005.40
2017-06-11T21:19:06.100Z,1005.43
2017-06-11T21:24:02.001Z,1005.56
2017-06-11T21:29:00.064Z,1005.57
2017-06-11T21:33:56.656Z,1005.61
2017-06-11T21:38:52.203Z,1005.60
2017-06-11T21:43:48.658Z,1005.66
2017-06-11T21:48:45.439Z,1005.66
2017-06-11T21:53:41.383Z,1005.78
2017-06-11T21:58:38.997Z,1005.76
2017-06-11T22:03:35.923Z,1005.80
2017-06-11T22:08:32.586Z,1005.70
2017-06-11T22:13:27.929Z,1005.78
2017-06-11T22:18:24.330Z,1005.65
2017-06-11T22:23:21.312Z,1005.73
2017-06-11T22:28:18.986Z,1005.73
2017-06-11T22:33:15.194Z,1005.88
2017-06-11T22:38:11.879Z,1005.83
2017-06-11T22:43:07.225Z,1005.82
2017-06-11T22:48:02.958Z,1005.84
2017-06-11T22:52:59.241Z,1005.94
2017-06-11T22:57:55.062Z,1005.95
2017-06-11T23:02:51.152Z,1005.87
2017-06-11T23:07:46.753Z,1005.79
2017-06-11T23:12:42.437Z,1005.86
2017-06-11T23:17:38.133Z,1005.88
2017-06-11T23:22:34.749Z,1005.70
2017-06-11T23:32:41.830Z,1005.69
2017-06-11T23:37:36.014Z,1005.66
2017-06-11T23:42:31.919Z,1005.71
2017-06-11T23:47:27.764Z,1005.74
2017-06-11T23:52:24.533Z,1005.71
2017-06-11T23:57:21.070Z,1005.73
